Time;durP1;ratioP1;P1;durP2;ratioP2;P2;SDS_P1;SDS_P2;PMS_P1;PMS_P2;Temp;Humidity;BMP_temperature;BMP_pressure;BME280_temperature;BME280_humidity;BME280_pressure;Samples;Min_cycle;Max_cycle;Signal;HPM_P1;HPM_P2
2022/06/06 00:01:14;;;;;;;2.22;1.50;;;16.60;99.90;;;;;;4892282;29;20391;-92
2022/06/06 00:03:43;;;;;;;1.63;1.52;;;16.50;99.90;;;;;;4893413;29;20223;-92
2022/06/06 00:06:15;;;;;;;2.95;1.83;;;16.50;99.90;;;;;;4893470;29;20283;-93
2022/06/06 00:08:44;;;;;;;2.35;1.90;;;16.50;99.90;;;;;;4891236;29;20248;-92
2022/06/06 00:11:13;;;;;;;2.30;2.10;;;16.50;99.90;;;;;;4881657;29;20271;-92
2022/06/06 00:13:44;;;;;;;1.50;1.40;;;16.40;99.90;;;;;;4881928;29;20271;-92
2022/06/06 00:16:14;;;;;;;1.52;1.48;;;16.40;99.90;;;;;;4882183;29;20311;-92
2022/06/06 00:18:45;;;;;;;3.78;2.28;;;16.40;99.90;;;;;;4882034;29;20269;-91
2022/06/06 00:21:13;;;;;;;2.25;1.75;;;16.50;99.90;;;;;;4881421;29;20215;-92
2022/06/06 00:23:42;;;;;;;2.05;1.38;;;16.50;99.90;;;;;;4881428;29;20219;-91
2022/06/06 00:26:20;;;;;;;1.65;1.55;;;16.50;99.90;;;;;;4880737;29;20212;-93
2022/06/06 00:28:50;;;;;;;2.30;2.03;;;16.50;99.90;;;;;;4880549;29;20242;-92
2022/06/06 00:36:51;;;;;;;2.03;1.88;;;16.50;99.90;;;;;;4881693;29;20215;-92
2022/06/06 00:39:20;;;;;;;2.25;1.98;;;16.50;99.90;;;;;;4881034;29;20235;-93
2022/06/06 00:41:50;;;;;;;3.53;1.88;;;16.60;99.90;;;;;;4880932;29;20248;-92
2022/06/06 00:44:23;;;;;;;1.92;1.83;;;16.60;99.90;;;;;;4881228;29;20243;-93
2022/06/06 00:46:56;;;;;;;4.15;2.33;;;16.60;99.90;;;;;;4881074;29;20218;-93
2022/06/06 00:49:30;;;;;;;2.70;2.38;;;16.60;99.90;;;;;;4880916;29;20287;-94
2022/06/06 00:52:09;;;;;;;2.15;2.05;;;16.60;99.90;;;;;;4880995;29;20243;-93
2022/06/06 00:54:39;;;;;;;1.80;1.70;;;16.60;99.90;;;;;;4881338;29;20211;-93
2022/06/06 00:57:15;;;;;;;2.28;2.10;;;16.50;99.90;;;;;;4881226;29;20199;-93
2022/06/06 00:59:48;;;;;;;2.10;1.90;;;16.50;99.90;;;;;;4880779;29;20250;-93
2022/06/06 01:02:17;;;;;;;1.75;1.65;;;16.50;99.90;;;;;;4880468;29;20321;-93
2022/06/06 01:04:47;;;;;;;1.95;1.85;;;16.50;99.90;;;;;;4880831;29;20212;-94
2022/06/06 01:07:16;;;;;;;1.90;1.80;;;16.60;99.90;;;;;;4880810;29;20261;-94
2022/06/06 01:09:45;;;;;;;1.70;1.60;;;16.60;99.90;;;;;;4880353;29;20236;-92
2022/06/06 01:12:17;;;;;;;3.10;2.00;;;16.60;99.90;;;;;;4880758;29;20269;-94
2022/06/06 01:14:54;;;;;;;2.13;2.03;;;16.50;99.90;;;;;;4880876;29;20215;-93
2022/06/06 01:17:31;;;;;;;2.20;1.90;;;16.60;99.90;;;;;;4880839;29;20207;-93
2022/06/06 01:20:15;;;;;;;6.70;2.38;;;16.60;99.90;;;;;;4880738;29;20215;-93
2022/06/06 01:23:18;;;;;;;2.03;1.85;;;16.60;99.90;;;;;;4881016;29;20223;-94
2022/06/06 01:26:25;;;;;;;1.70;1.60;;;16.60;99.90;;;;;;4850031;29;20216;-93
2022/06/06 01:29:05;;;;;;;2.35;2.17;;;16.60;99.90;;;;;;4871592;29;20254;-94
2022/06/06 01:31:39;;;;;;;2.40;2.20;;;16.60;99.90;;;;;;4880139;29;20235;-94
2022/06/06 01:34:10;;;;;;;4.90;2.17;;;16.60;99.90;;;;;;4880475;29;20211;-96
2022/06/06 01:36:41;;;;;;;2.42;2.15;;;16.60;99.90;;;;;;4880434;29;20299;-95
2022/06/06 01:39:12;;;;;;;1.95;1.50;;;16.60;99.90;;;;;;4879723;29;20224;-96
2022/06/06 01:41:49;;;;;;;2.30;2.10;;;16.60;99.90;;;;;;4880198;29;20212;-95
2022/06/06 01:44:29;;;;;;;1.90;1.80;;;16.60;99.90;;;;;;4880150;29;20220;-96
2022/06/06 01:47:13;;;;;;;2.38;2.17;;;16.60;99.90;;;;;;4879627;29;20208;-95
2022/06/06 01:49:42;;;;;;;1.70;1.60;;;16.60;99.90;;;;;;4880022;29;20228;-96
2022/06/06 01:52:13;;;;;;;1.73;1.63;;;16.50;99.90;;;;;;4879665;29;20261;-96
2022/06/06 01:54:43;;;;;;;2.17;2.00;;;16.50;99.90;;;;;;4879922;29;20204;-95
2022/06/06 01:57:16;;;;;;;1.90;1.80;;;16.50;99.90;;;;;;4879544;29;20208;-96
2022/06/06 01:59:46;;;;;;;2.65;1.83;;;16.50;99.90;;;;;;4879790;29;20264;-96
2022/06/06 02:02:15;;;;;;;1.80;1.70;;;16.50;99.90;;;;;;4879539;29;20323;-95
2022/06/06 02:04:44;;;;;;;2.05;1.85;;;16.50;99.90;;;;;;4879930;29;20267;-96
2022/06/06 02:07:12;;;;;;;2.47;2.00;;;16.50;99.90;;;;;;4880324;29;20215;-96
2022/06/06 02:09:42;;;;;;;3.40;2.22;;;16.50;99.90;;;;;;4878956;29;20232;-96
2022/06/06 02:12:11;;;;;;;1.70;1.60;;;16.50;99.90;;;;;;4880266;29;20220;-95
2022/06/06 02:14:39;;;;;;;4.45;2.10;;;16.50;99.90;;;;;;4879951;29;20203;-94
2022/06/06 02:17:09;;;;;;;1.95;1.83;;;16.50;99.90;;;;;;4879774;29;20216;-95
2022/06/06 02:19:38;;;;;;;2.55;2.35;;;16.50;99.90;;;;;;4879867;29;20275;-96
2022/06/06 02:22:07;;;;;;;2.15;1.95;;;16.50;99.90;;;;;;4879059;29;20207;-96
2022/06/06 02:24:35;;;;;;;1.67;1.58;;;16.60;99.90;;;;;;4879346;29;20303;-95
2022/06/06 02:27:05;;;;;;;4.55;2.22;;;16.50;99.90;;;;;;4879705;29;20264;-96
2022/06/06 02:29:33;;;;;;;3.72;1.90;;;16.50;99.90;;;;;;4879286;29;20247;-94
2022/06/06 02:32:02;;;;;;;1.73;1.63;;;16.60;99.90;;;;;;4879398;29;20271;-95
2022/06/06 02:34:33;;;;;;;1.90;1.80;;;16.60;99.90;;;;;;4879968;29;20211;-95
2022/06/06 02:37:01;;;;;;;2.33;2.13;;;16.60;99.90;;;;;;4878963;29;20211;-94
2022/06/06 02:39:33;;;;;;;2.63;2.35;;;16.70;99.90;;;;;;4885341;23;20227;-94
2022/06/06 02:42:02;;;;;;;15.95;2.45;;;16.70;99.90;;;;;;4878987;29;20207;-94
2022/06/06 02:44:32;;;;;;;1.95;1.85;;;16.60;99.90;;;;;;4879072;29;20203;-95
2022/06/06 02:47:01;;;;;;;3.03;1.83;;;16.70;99.90;;;;;;4878922;29;20207;-95
2022/06/06 02:52:33;;;;;;;2.38;1.83;;;16.60;99.90;;;;;;4878592;29;20240;-95
2022/06/06 02:55:03;;;;;;;1.80;1.70;;;16.60;99.90;;;;;;4879203;29;20211;-95
2022/06/06 02:57:32;;;;;;;2.47;2.28;;;16.60;99.90;;;;;;4879008;29;20280;-95
2022/06/06 03:00:01;;;;;;;2.00;1.83;;;16.60;99.90;;;;;;4878936;29;20208;-94
2022/06/06 03:02:30;;;;;;;2.10;2.00;;;16.60;99.90;;;;;;4878591;29;20223;-95
2022/06/06 03:04:59;;;;;;;2.03;1.92;;;16.50;99.90;;;;;;4879103;29;20283;-95
2022/06/06 03:07:42;;;;;;;2.08;1.90;;;16.50;99.90;;;;;;4878851;29;20215;-95
2022/06/06 03:10:21;;;;;;;15.27;2.30;;;16.50;99.90;;;;;;4878689;29;20283;-94
2022/06/06 03:13:06;;;;;;;1.80;1.70;;;16.50;99.90;;;;;;4879164;29;20212;-94
2022/06/06 03:22:03;;;;;;;1.60;1.50;;;16.60;99.90;;;;;;4878746;29;20204;-94
2022/06/06 03:24:47;;;;;;;1.83;1.73;;;16.50;99.90;;;;;;4878830;29;20235;-95
2022/06/06 03:27:23;;;;;;;1.58;1.48;;;16.60;99.90;;;;;;4879259;29;20216;-95
2022/06/06 03:30:04;;;;;;;1.63;1.52;;;16.60;99.90;;;;;;4878693;29;20235;-94
2022/06/06 03:32:45;;;;;;;1.70;1.60;;;16.60;99.90;;;;;;4878587;29;20216;-94
2022/06/06 03:35:22;;;;;;;1.50;1.40;;;16.60;99.90;;;;;;4878644;29;20224;-93
2022/06/06 03:38:02;;;;;;;1.33;1.33;;;16.70;99.90;;;;;;4878583;29;20232;-94
2022/06/06 03:40:40;;;;;;;1.20;1.13;;;16.70;99.90;;;;;;4878537;29;20223;-94
2022/06/06 03:43:21;;;;;;;1.40;1.30;;;16.70;99.90;;;;;;4878581;29;20208;-94
2022/06/06 03:45:54;;;;;;;2.40;1.63;;;16.80;99.90;;;;;;4878836;29;20268;-94
2022/06/06 03:48:32;;;;;;;1.58;1.48;;;16.80;99.90;;;;;;4878447;29;20231;-93
2022/06/06 03:51:13;;;;;;;1.42;1.33;;;16.80;99.90;;;;;;4878541;29;20256;-95
2022/06/06 03:53:48;;;;;;;2.60;1.42;;;16.90;99.90;;;;;;4878694;29;20256;-93
2022/06/06 03:56:37;;;;;;;1.45;1.35;;;16.90;99.90;;;;;;4878332;29;20230;-94
2022/06/06 03:59:08;;;;;;;1.52;1.42;;;16.90;99.90;;;;;;4878565;29;20280;-94
2022/06/06 04:01:38;;;;;;;1.10;1.00;;;17.00;99.90;;;;;;4880076;29;20204;-93
2022/06/06 04:04:06;;;;;;;1.13;1.13;;;17.00;99.90;;;;;;4882272;29;20219;-93
2022/06/06 04:06:35;;;;;;;1.60;1.50;;;17.00;99.90;;;;;;4883743;29;20211;-92
2022/06/06 04:09:15;;;;;;;2.80;1.23;;;17.00;99.90;;;;;;4888440;29;20231;-94
2022/06/06 04:11:55;;;;;;;1.25;1.23;;;17.00;99.90;;;;;;4888103;29;20208;-93
2022/06/06 04:14:34;;;;;;;2.85;1.50;;;17.00;99.90;;;;;;4893668;29;20215;-93
2022/06/06 04:17:14;;;;;;;1.55;1.45;;;17.10;99.90;;;;;;4891686;29;20216;-93
2022/06/06 04:19:54;;;;;;;1.52;1.42;;;17.10;99.90;;;;;;4889935;29;20256;-93
2022/06/06 04:22:32;;;;;;;1.75;1.63;;;17.10;99.90;;;;;;4882829;29;20212;-93
2022/06/06 04:25:12;;;;;;;11.98;1.90;;;17.10;99.90;;;;;;4881927;29;20246;-92
2022/06/06 04:28:09;;;;;;;1.40;1.30;;;17.10;99.90;;;;;;4882278;29;20237;-94
2022/06/06 04:31:03;;;;;;;1.85;1.52;;;17.10;99.90;;;;;;4891858;29;20228;-94
2022/06/06 04:33:43;;;;;;;1.30;1.20;;;17.10;99.90;;;;;;4894960;29;20204;-93
2022/06/06 04:36:18;;;;;;;1.48;1.38;;;17.10;99.90;;;;;;4895859;29;20216;-93
2022/06/06 04:38:56;;;;;;;1.60;1.50;;;17.20;99.90;;;;;;4886905;29;20243;-94
2022/06/06 04:41:32;;;;;;;1.30;1.20;;;17.10;99.90;;;;;;4882558;29;20208;-93
2022/06/06 04:44:12;;;;;;;1.23;1.23;;;17.10;99.90;;;;;;4882051;29;20268;-93
2022/06/06 04:46:49;;;;;;;1.90;1.80;;;17.10;99.90;;;;;;4881766;29;20207;-94
2022/06/06 04:49:18;;;;;;;1.70;1.48;;;17.10;99.90;;;;;;4881565;29;20237;-94
2022/06/06 04:51:48;;;;;;;2.47;1.50;;;17.10;99.90;;;;;;4880930;29;20239;-95
2022/06/06 04:54:20;;;;;;;1.48;1.38;;;17.20;99.90;;;;;;4881126;29;20212;-95
2022/06/06 04:57:04;;;;;;;2.53;1.73;;;17.30;99.90;;;;;;4881230;29;20238;-94
2022/06/06 04:59:36;;;;;;;1.60;1.40;;;17.30;99.90;;;;;;4880943;29;20228;-95
2022/06/06 05:02:05;;;;;;;1.52;1.42;;;17.30;99.90;;;;;;4880969;29;20235;-94
2022/06/06 05:04:34;;;;;;;1.48;1.38;;;17.30;99.90;;;;;;4880764;29;20215;-94
2022/06/06 05:07:28;;;;;;;1.60;1.50;;;17.40;99.90;;;;;;4880760;29;20218;-95
2022/06/06 05:10:17;;;;;;;1.95;1.75;;;17.40;99.90;;;;;;4880471;29;20234;-95
2022/06/06 05:13:22;;;;;;;1.73;1.63;;;17.50;99.90;;;;;;4880638;29;20208;-96
2022/06/06 05:16:10;;;;;;;1.63;1.52;;;17.50;99.90;;;;;;4880756;29;20224;-95
2022/06/06 05:19:05;;;;;;;3.03;2.30;;;17.50;99.90;;;;;;4880349;29;20318;-96
2022/06/06 05:21:51;;;;;;;2.80;2.22;;;17.50;99.90;;;;;;4880507;29;20227;-94
2022/06/06 05:25:04;;;;;;;1.92;1.83;;;17.60;99.90;;;;;;4880585;29;20212;-95
2022/06/06 05:31:30;;;;;;;3.53;2.00;;;17.50;99.90;;;;;;4821250;29;20237;-95
2022/06/06 05:34:34;;;;;;;2.58;2.38;;;17.50;99.90;;;;;;4810825;29;20214;-94
2022/06/06 05:44:17;;;;;;;2.25;2.15;;;17.40;99.90;;;;;;4879918;29;20212;-94
2022/06/06 05:47:10;;;;;;;2.67;2.47;;;17.40;99.90;;;;;;4879636;29;20208;-94
2022/06/06 05:50:20;;;;;;;6.47;2.80;;;17.50;99.90;;;;;;4878189;29;20319;-94
2022/06/06 06:00:10;;;;;;;2.67;2.47;;;17.50;99.90;;;;;;4878544;29;20228;-94
2022/06/06 06:03:12;;;;;;;2.35;2.15;;;17.60;99.90;;;;;;4879578;29;20212;-94
2022/06/06 06:05:56;;;;;;;4.80;2.40;;;17.60;99.90;;;;;;4879674;29;20211;-93
2022/06/06 06:08:56;;;;;;;3.05;2.78;;;17.70;99.90;;;;;;4879504;29;20231;-94
2022/06/06 06:12:00;;;;;;;2.30;2.10;;;17.80;99.90;;;;;;4878996;29;20231;-94
2022/06/06 06:14:42;;;;;;;2.97;2.65;;;17.90;99.90;;;;;;4879494;29;20235;-93
2022/06/06 06:17:12;;;;;;;3.25;2.30;;;18.00;99.90;;;;;;4879673;29;20267;-94
2022/06/06 06:19:45;;;;;;;2.17;2.08;;;18.10;99.90;;;;;;4879491;29;20308;-94
2022/06/06 06:22:17;;;;;;;2.65;2.40;;;18.10;99.90;;;;;;4879119;29;20220;-94
2022/06/06 06:24:49;;;;;;;2.30;2.20;;;18.20;99.90;;;;;;4878368;29;20215;-94
2022/06/06 06:27:20;;;;;;;3.35;2.47;;;18.20;99.90;;;;;;4879038;29;20215;-94
2022/06/06 06:29:48;;;;;;;4.47;2.38;;;18.20;99.90;;;;;;4878988;29;20231;-94
2022/06/06 06:32:34;;;;;;;2.13;2.03;;;18.30;99.90;;;;;;4879014;29;20207;-93
2022/06/06 06:35:13;;;;;;;3.35;3.03;;;18.40;99.90;;;;;;4879144;29;20203;-94
2022/06/06 06:38:03;;;;;;;2.15;2.00;;;18.50;99.90;;;;;;4878895;29;20235;-93
2022/06/06 06:40:47;;;;;;;2.40;2.20;;;18.50;99.90;;;;;;4879025;29;20271;-94
2022/06/06 06:43:34;;;;;;;2.70;2.13;;;18.60;99.90;;;;;;4878749;29;20225;-92
2022/06/06 06:46:12;;;;;;;2.85;2.30;;;18.70;99.90;;;;;;4878667;29;20208;-93
2022/06/06 06:48:48;;;;;;;2.10;2.00;;;18.80;99.90;;;;;;4879346;29;20235;-93
2022/06/06 06:51:21;;;;;;;1.80;1.70;;;18.90;99.90;;;;;;4878622;29;20297;-93
2022/06/06 06:54:09;;;;;;;2.83;2.30;;;19.00;99.90;;;;;;4878922;29;20223;-93
2022/06/06 06:56:57;;;;;;;2.53;2.33;;;19.20;99.90;;;;;;4879011;29;20275;-93
2022/06/06 06:59:34;;;;;;;2.38;2.17;;;19.30;99.90;;;;;;4878770;29;20251;-93
2022/06/06 07:11:17;;;;;;;2.20;2.10;;;20.50;99.90;;;;;;4878782;29;20224;-94
2022/06/06 07:14:04;;;;;;;2.10;1.92;;;20.90;99.90;;;;;;4879314;29;20271;-94
2022/06/06 07:16:35;;;;;;;3.72;2.67;;;21.10;99.90;;;;;;4878889;29;20219;-93
2022/06/06 07:19:11;;;;;;;1.98;1.80;;;21.10;99.90;;;;;;4878715;29;20251;-94
2022/06/06 07:21:45;;;;;;;2.40;2.22;;;21.20;99.90;;;;;;4878653;29;20255;-93
2022/06/06 07:24:23;;;;;;;3.20;2.13;;;21.30;99.90;;;;;;4878696;29;20215;-94
2022/06/06 07:27:01;;;;;;;2.45;2.25;;;21.40;99.90;;;;;;4879110;29;20224;-94
2022/06/06 07:29:36;;;;;;;2.05;1.95;;;21.20;99.90;;;;;;4878765;29;20240;-94
2022/06/06 07:32:36;;;;;;;2.17;1.98;;;21.10;99.90;;;;;;4878418;29;20228;-94
2022/06/06 07:35:21;;;;;;;1.90;1.80;;;21.20;99.90;;;;;;4878671;29;20208;-94
2022/06/06 07:38:16;;;;;;;;;;;;;;;;;;;;;
2022/06/06 07:41:11;;;;;;;1.70;1.60;;;21.40;99.90;;;;;;4882317;29;20204;-93
2022/06/06 07:43:58;;;;;;;1.65;1.55;;;21.80;99.90;;;;;;4882114;29;20219;-93
2022/06/06 07:46:38;;;;;;;1.90;1.80;;;22.00;99.90;;;;;;4882321;29;20239;-93
2022/06/06 07:49:30;;;;;;;2.40;2.13;;;22.30;99.90;;;;;;4882045;29;20291;-95
2022/06/06 07:52:27;;;;;;;2.67;1.90;;;22.80;99.90;;;;;;4882213;29;20235;-93
2022/06/06 07:55:12;;;;;;;2.03;1.90;;;23.30;99.90;;;;;;4882756;29;20207;-94
2022/06/06 07:57:53;;;;;;;1.80;1.70;;;23.10;99.90;;;;;;4881773;29;20215;-93
2022/06/06 08:00:45;;;;;;;1.80;1.70;;;23.20;99.90;;;;;;4882309;29;20431;-94
2022/06/06 08:03:54;;;;;;;1.95;1.60;;;23.30;99.90;;;;;;4881591;29;20203;-93
2022/06/06 08:06:33;;;;;;;5.32;1.98;;;24.00;99.90;;;;;;4882667;29;20294;-94
2022/06/06 08:09:26;;;;;;;4.10;1.75;;;24.90;99.90;;;;;;4882207;29;20234;-94
2022/06/06 08:16:01;;;;;;;2.13;1.98;;;24.90;99.90;;;;;;4880336;29;20215;-95
2022/06/06 08:22:01;;;;;;;4.78;1.90;;;25.70;99.90;;;;;;4881916;29;20212;-94
2022/06/06 08:24:47;;;;;;;1.13;1.13;;;25.50;99.90;;;;;;4882474;29;20215;-95
2022/06/06 08:27:33;;;;;;;1.70;1.60;;;25.20;99.90;;;;;;4881904;29;20256;-95
2022/06/06 08:30:38;;;;;;;1.80;1.70;;;25.20;99.90;;;;;;4881822;29;20211;-95
2022/06/06 08:33:43;;;;;;;1.60;1.50;;;25.20;99.90;;;;;;4880535;29;20238;-93
2022/06/06 08:36:52;;;;;;;1.67;1.45;;;24.90;99.90;;;;;;4880877;29;20211;-94
2022/06/06 08:40:17;;;;;;;1.90;1.80;;;24.70;99.90;;;;;;4882847;29;20261;-94
2022/06/06 08:43:07;;;;;;;7.03;1.90;;;24.40;99.90;;;;;;4883608;29;20207;-94
2022/06/06 08:45:59;;;;;;;2.03;1.67;;;24.30;99.90;;;;;;4884679;29;20222;-94
2022/06/06 08:50:44;;;;;;;1.60;1.50;;;24.70;99.90;;;;;;4881049;29;20238;-93
2022/06/06 08:52:42;;;;;;;2.38;1.70;;;26.10;99.90;;;;;;4880836;29;20318;-94
2022/06/06 08:59:46;;;;;;;2.00;1.88;;;27.30;99.90;;;;;;4833290;29;20240;-93
2022/06/06 09:03:09;;;;;;;2.65;1.75;;;28.10;99.90;;;;;;4854416;29;20203;-94
2022/06/06 09:10:29;;;;;;;1.17;1.17;;;29.10;99.90;;;;;;4881950;29;20223;-93
2022/06/06 09:21:02;;;;;;;1.38;1.27;;;30.00;99.90;;;;;;4804649;29;20221;-94
2022/06/06 09:50:51;;;;;;;1.58;1.48;;;29.70;96.70;;;;;;4901760;23;20236;-93
2022/06/06 10:21:59;;;;;;;2.78;1.50;;;28.30;95.80;;;;;;4914313;29;20218;-94
2022/06/06 10:36:17;;;;;;;2.13;1.98;;;28.40;96.60;;;;;;4914658;29;20218;-93
2022/06/06 10:39:27;;;;;;;1.60;1.50;;;28.40;97.30;;;;;;4906268;29;20246;-92
2022/06/06 10:42:34;;;;;;;1.83;1.50;;;27.80;95.80;;;;;;4897907;29;20203;-92
2022/06/06 10:45:25;;;;;;;13.65;2.35;;;27.60;97.10;;;;;;4897540;29;20215;-93
2022/06/06 10:48:18;;;;;;;1.65;1.55;;;27.30;97.40;;;;;;4897610;29;20242;-92
2022/06/06 10:54:42;;;;;;;2.38;2.17;;;27.90;97.20;;;;;;4897805;29;20267;-93
2022/06/06 10:57:48;;;;;;;2.25;2.00;;;27.90;96.70;;;;;;4897796;29;20231;-93
2022/06/06 11:04:41;;;;;;;1.60;1.50;;;28.40;95.70;;;;;;4864298;29;20207;-93
2022/06/06 11:08:25;;;;;;;2.03;1.83;;;29.00;95.80;;;;;;4876847;29;20208;-92
2022/06/06 11:12:02;;;;;;;2.17;1.88;;;30.00;94.10;;;;;;4862453;29;20226;-93
2022/06/06 11:14:52;;;;;;;2.78;2.17;;;30.50;92.70;;;;;;4885496;29;20240;-93
2022/06/06 11:18:24;;;;;;;1.83;1.70;;;31.00;93.90;;;;;;4900990;29;20231;-92
2022/06/06 11:21:34;;;;;;;2.10;1.98;;;31.20;91.20;;;;;;4901159;29;20214;-93
2022/06/06 11:24:37;;;;;;;1.70;1.60;;;31.50;92.10;;;;;;4892907;29;20218;-93
2022/06/06 11:27:59;;;;;;;1.40;1.35;;;31.50;90.60;;;;;;4901269;29;20221;-93
2022/06/06 11:34:44;;;;;;;1.45;1.35;;;31.70;88.70;;;;;;4898806;29;20231;-92
2022/06/06 11:37:53;;;;;;;1.55;1.45;;;30.40;88.70;;;;;;4902025;29;20215;-93
2022/06/06 11:40:39;;;;;;;1.73;1.63;;;30.50;90.00;;;;;;4907773;29;20211;-93
2022/06/06 11:46:52;;;;;;;1.50;1.40;;;30.30;88.00;;;;;;4900640;29;20218;-92
2022/06/06 11:50:26;;;;;;;1.67;1.58;;;30.60;88.50;;;;;;4900949;29;20247;-91
2022/06/06 11:53:35;;;;;;;2.30;2.05;;;30.20;89.70;;;;;;4900342;29;20222;-93
2022/06/06 11:56:21;;;;;;;2.08;1.70;;;30.10;89.30;;;;;;4900196;29;20263;-92
2022/06/06 11:59:41;;;;;;;1.88;1.60;;;29.60;90.20;;;;;;4900565;29;20231;-92
2022/06/06 12:03:15;;;;;;;1.52;1.42;;;28.90;91.50;;;;;;4900385;29;20223;-92
2022/06/06 12:06:42;;;;;;;1.63;1.52;;;28.70;93.20;;;;;;4900749;29;20208;-93
2022/06/06 12:09:39;;;;;;;3.30;2.20;;;28.90;93.10;;;;;;4869382;29;20314;-93
2022/06/06 12:12:52;;;;;;;2.13;1.92;;;28.90;92.00;;;;;;4900043;29;20215;-94
2022/06/06 12:19:01;;;;;;;5.78;1.75;;;29.30;89.70;;;;;;4899453;29;20237;-92
2022/06/06 12:22:30;;;;;;;2.25;1.95;;;28.90;90.50;;;;;;4900444;29;20223;-92
2022/06/06 12:25:55;;;;;;;1.70;1.60;;;29.50;90.60;;;;;;4900276;29;20298;-92
2022/06/06 13:22:05;;;;;;;1.73;1.63;;;28.90;90.60;;;;;;4897086;29;20217;-91
2022/06/06 13:25:28;;;;;;;2.05;1.92;;;28.80;91.50;;;;;;4899718;29;20207;-91
2022/06/06 13:28:16;;;;;;;2.38;2.17;;;29.00;91.30;;;;;;4899329;29;20230;-91
2022/06/06 13:31:01;;;;;;;1.85;1.75;;;29.10;91.70;;;;;;4890828;29;20199;-91
2022/06/06 13:33:43;;;;;;;2.35;2.15;;;29.40;91.40;;;;;;4899408;29;20253;-91
2022/06/06 13:36:24;;;;;;;3.15;2.30;;;29.50;90.30;;;;;;4899675;29;20215;-90
2022/06/06 13:39:03;;;;;;;2.33;2.13;;;29.20;91.00;;;;;;4903220;29;20234;-90
2022/06/06 13:41:52;;;;;;;2.05;1.83;;;29.20;89.80;;;;;;4900212;29;20210;-90
2022/06/06 13:44:55;;;;;;;4.63;1.80;;;29.40;89.00;;;;;;4899417;29;20226;-90
2022/06/06 13:48:12;;;;;;;1.88;1.77;;;29.20;90.10;;;;;;4898702;29;20214;-91
2022/06/06 13:54:34;;;;;;;2.20;2.10;;;28.80;87.80;;;;;;4898232;29;20318;-91
2022/06/06 13:57:31;;;;;;;2.00;1.90;;;28.40;87.90;;;;;;4865992;29;20207;-93
2022/06/06 14:00:20;;;;;;;2.35;1.92;;;28.00;88.50;;;;;;4898095;29;20211;-91
2022/06/06 14:03:18;;;;;;;1.65;1.55;;;27.60;88.90;;;;;;4898411;29;20219;-90
2022/06/06 14:06:20;;;;;;;1.92;1.83;;;27.20;90.40;;;;;;4897982;29;20211;-91
2022/06/06 14:09:26;;;;;;;1.83;1.73;;;26.70;91.20;;;;;;4898317;29;20239;-91
2022/06/06 14:12:11;;;;;;;2.17;2.00;;;26.50;91.60;;;;;;4898481;29;20225;-91
2022/06/06 14:20:33;;;;;;;2.10;1.85;;;27.20;90.80;;;;;;4895562;29;20239;-92
2022/06/06 14:23:20;;;;;;;2.15;2.03;;;27.30;90.60;;;;;;4898120;29;20230;-92
2022/06/06 14:25:51;;;;;;;1.90;1.75;;;27.30;90.70;;;;;;4898527;29;20219;-91
2022/06/06 14:28:23;;;;;;;2.00;1.90;;;27.30;90.70;;;;;;4898124;29;20239;-92
2022/06/06 14:31:02;;;;;;;2.83;2.10;;;27.40;91.20;;;;;;4898006;29;20222;-92
2022/06/06 14:37:09;;;;;;;1.70;1.60;;;27.60;90.10;;;;;;4898086;29;20214;-92
2022/06/06 14:42:25;;;;;;;2.35;1.90;;;27.20;90.00;;;;;;4913859;29;20221;-91
2022/06/06 14:48:53;;;;;;;2.00;1.90;;;27.30;90.20;;;;;;4910088;29;20219;-92
2022/06/06 14:51:41;;;;;;;1.92;1.83;;;27.60;90.10;;;;;;4897565;29;20210;-91
2022/06/06 14:54:23;;;;;;;1.70;1.60;;;27.70;90.40;;;;;;4897818;29;20230;-91
2022/06/06 14:57:04;;;;;;;4.85;2.20;;;27.60;90.00;;;;;;4898000;29;20296;-91
2022/06/06 14:59:49;;;;;;;4.95;1.95;;;27.60;90.30;;;;;;4897468;29;20234;-91
2022/06/06 15:02:25;;;;;;;2.00;1.88;;;27.50;89.20;;;;;;4897056;29;20211;-92
2022/06/06 15:05:14;;;;;;;1.67;1.58;;;27.40;89.80;;;;;;4897775;29;20203;-93
2022/06/06 15:07:49;;;;;;;1.77;1.67;;;27.40;90.00;;;;;;4897645;29;20218;-91
2022/06/06 15:10:29;;;;;;;2.95;1.92;;;27.30;90.30;;;;;;4897429;29;20258;-92
2022/06/06 15:12:58;;;;;;;2.10;1.90;;;27.30;90.50;;;;;;4897511;29;20207;-91
2022/06/06 15:15:29;;;;;;;1.50;1.38;;;27.50;90.00;;;;;;4897640;29;20265;-91
2022/06/06 15:18:02;;;;;;;1.70;1.60;;;27.60;88.60;;;;;;4897493;29;20269;-91
2022/06/06 15:20:34;;;;;;;2.17;2.05;;;27.80;90.00;;;;;;4897437;29;20249;-91
2022/06/06 15:23:18;;;;;;;1.85;1.75;;;27.90;90.00;;;;;;4897252;29;20242;-91
2022/06/06 15:25:55;;;;;;;1.92;1.65;;;27.80;89.30;;;;;;4897469;29;20230;-91
2022/06/06 15:28:50;;;;;;;2.63;1.98;;;27.80;87.80;;;;;;4897087;29;20242;-91
2022/06/06 15:31:32;;;;;;;4.32;2.03;;;27.70;89.60;;;;;;4897376;29;20266;-91
2022/06/06 15:34:17;;;;;;;1.90;1.80;;;27.60;89.40;;;;;;4897421;29;20253;-91
2022/06/06 15:36:57;;;;;;;2.38;1.77;;;27.50;90.30;;;;;;4897391;29;20210;-91
2022/06/06 15:39:44;;;;;;;5.32;1.90;;;27.40;88.60;;;;;;4897179;29;20288;-92
2022/06/06 15:42:45;;;;;;;2.17;1.98;;;27.30;90.40;;;;;;4896712;29;20234;-92
2022/06/06 15:45:51;;;;;;;1.67;1.58;;;27.30;90.10;;;;;;4897269;29;20211;-92
2022/06/06 15:48:29;;;;;;;1.63;1.52;;;27.20;90.10;;;;;;4897357;29;20234;-91
2022/06/06 15:51:10;;;;;;;2.20;2.05;;;27.10;90.00;;;;;;4897134;29;20218;-91
2022/06/06 15:53:59;;;;;;;2.15;1.95;;;27.00;90.40;;;;;;4896845;29;20214;-92
2022/06/06 15:56:40;;;;;;;2.35;1.85;;;26.90;90.20;;;;;;4897312;29;20234;-91
2022/06/06 15:59:48;;;;;;;2.38;2.17;;;26.80;90.40;;;;;;4900794;29;20329;-90
2022/06/06 16:02:37;;;;;;;2.10;1.90;;;26.80;90.00;;;;;;4900510;29;20206;-92
2022/06/06 16:05:20;;;;;;;1.83;1.73;;;26.80;90.80;;;;;;4900345;29;20254;-91
2022/06/06 16:08:26;;;;;;;1.83;1.73;;;26.90;90.20;;;;;;4900352;29;20231;-91
2022/06/06 16:11:08;;;;;;;1.40;1.30;;;26.80;90.30;;;;;;4896888;29;20227;-90
2022/06/06 16:13:49;;;;;;;2.10;2.00;;;26.80;89.60;;;;;;4900200;29;20207;-90
2022/06/06 16:16:29;;;;;;;1.70;1.60;;;26.70;90.30;;;;;;4900594;29;20253;-91
2022/06/06 16:19:07;;;;;;;2.65;2.45;;;26.70;90.40;;;;;;4900224;29;20254;-92
2022/06/06 16:21:45;;;;;;;1.75;1.65;;;26.60;90.50;;;;;;4900111;29;20215;-92
2022/06/06 16:27:40;;;;;;;2.47;2.00;;;26.60;91.30;;;;;;4898256;29;20222;-91
2022/06/06 16:30:36;;;;;;;1.90;1.80;;;26.60;91.80;;;;;;4900262;29;20215;-91
2022/06/06 16:33:18;;;;;;;1.63;1.52;;;26.60;91.10;;;;;;4900349;29;20207;-91
2022/06/06 16:35:51;;;;;;;2.00;1.80;;;26.50;90.50;;;;;;4899697;29;20294;-91
2022/06/06 16:48:00;;;;;;;2.42;2.22;;;26.40;91.60;;;;;;4899866;29;20222;-91
2022/06/06 16:50:50;;;;;;;2.65;2.00;;;26.40;91.30;;;;;;4899753;29;20211;-92
2022/06/06 16:53:28;;;;;;;2.30;2.00;;;26.30;91.20;;;;;;4899754;29;20287;-91
2022/06/06 16:56:11;;;;;;;3.45;2.13;;;26.20;90.80;;;;;;4899675;29;20230;-91
2022/06/06 16:59:14;;;;;;;2.08;1.75;;;26.20;91.30;;;;;;4900016;29;20238;-92
2022/06/06 17:02:06;;;;;;;2.55;2.00;;;26.20;91.00;;;;;;4899193;29;20210;-91
2022/06/06 17:04:49;;;;;;;1.92;1.75;;;26.10;91.10;;;;;;4899680;29;20232;-91
2022/06/06 17:07:49;;;;;;;2.20;2.00;;;26.10;91.50;;;;;;4899488;29;20283;-91
2022/06/06 17:10:52;;;;;;;1.90;1.80;;;26.00;91.40;;;;;;4898749;29;20298;-91
2022/06/06 17:13:34;;;;;;;1.83;1.73;;;26.10;92.20;;;;;;4897783;29;20238;-91
2022/06/06 17:16:29;;;;;;;1.98;1.85;;;26.00;92.40;;;;;;4899176;29;20223;-91
2022/06/06 17:19:02;;;;;;;2.20;2.00;;;25.90;92.40;;;;;;4899263;29;20235;-91
2022/06/06 17:21:43;;;;;;;1.98;1.58;;;25.90;92.30;;;;;;4899070;29;20210;-91
2022/06/06 17:24:34;;;;;;;2.47;2.03;;;25.80;92.30;;;;;;4899330;29;20207;-91
2022/06/06 17:27:34;;;;;;;2.00;1.88;;;25.80;92.90;;;;;;4899286;29;20222;-93
2022/06/06 17:30:19;;;;;;;1.92;1.83;;;25.70;93.90;;;;;;4899246;29;20239;-92
2022/06/06 17:33:02;;;;;;;3.70;3.33;;;25.70;93.40;;;;;;4898854;29;20302;-91
2022/06/06 17:35:35;;;;;;;2.92;2.60;;;25.60;94.20;;;;;;4898846;29;20226;-93
2022/06/06 17:38:44;;;;;;;3.08;2.85;;;25.50;94.50;;;;;;4899184;29;20230;-92
2022/06/06 17:41:19;;;;;;;2.65;2.45;;;25.50;94.80;;;;;;4898770;29;20218;-93
2022/06/06 17:44:05;;;;;;;2.78;2.13;;;25.40;95.10;;;;;;4898950;29;20274;-91
2022/06/06 17:46:41;;;;;;;2.60;2.40;;;25.40;95.40;;;;;;4899172;29;20232;-91
2022/06/06 17:49:47;;;;;;;2.33;2.17;;;25.30;95.20;;;;;;4902828;29;20237;-91
2022/06/06 17:52:33;;;;;;;1.95;1.83;;;25.30;96.00;;;;;;4899341;29;20271;-91
2022/06/06 17:55:13;;;;;;;7.03;1.95;;;25.20;95.00;;;;;;4898986;29;20244;-91
2022/06/06 17:57:49;;;;;;;2.25;1.85;;;25.10;95.50;;;;;;4898571;29;20210;-91
2022/06/06 18:00:20;;;;;;;2.72;2.53;;;25.00;95.70;;;;;;4898895;29;20238;-91
2022/06/06 18:03:22;;;;;;;2.28;2.00;;;25.00;96.00;;;;;;4898027;29;20215;-91
2022/06/06 18:06:10;;;;;;;2.00;1.90;;;24.90;96.00;;;;;;4898869;29;20206;-92
2022/06/06 18:09:26;;;;;;;2.17;2.00;;;24.90;97.10;;;;;;4903156;29;20223;-90
2022/06/06 18:12:07;;;;;;;2.10;1.92;;;24.80;97.40;;;;;;4903532;29;20219;-91
2022/06/06 18:14:45;;;;;;;2.00;1.90;;;24.70;97.70;;;;;;4899742;29;20222;-92